sensor_id;sensor_type;location;lat;lon;timestamp;pressure;altitude;pressure_sealevel;temperature
24586;BMP280;12743;52.262;6.172;2023-09-19T00:00:17;96647.66;;;15.32
24586;BMP280;12743;52.262;6.172;2023-09-19T00:02:58;96698.72;;;15.28
24586;BMP280;12743;52.262;6.172;2023-09-19T00:05:29;96670.69;;;15.31
24586;BMP280;12743;52.262;6.172;2023-09-19T00:07:57;96676.25;;;15.33
24586;BMP280;12743;52.262;6.172;2023-09-19T00:10:27;96688.69;;;15.18
24586;BMP280;12743;52.262;6.172;2023-09-19T00:12:58;96683.06;;;15.25
24586;BMP280;12743;52.262;6.172;2023-09-19T00:15:37;96685.72;;;15.25
24586;BMP280;12743;52.262;6.172;2023-09-19T00:18:04;96662.13;;;15.21
24586;BMP280;12743;52.262;6.172;2023-09-19T00:20:36;96691.22;;;15.12
24586;BMP280;12743;52.262;6.172;2023-09-19T00:23:04;96664.38;;;15.14
24586;BMP280;12743;52.262;6.172;2023-09-19T00:25:36;96675.84;;;15.25
24586;BMP280;12743;52.262;6.172;2023-09-19T00:28:04;96699.00;;;15.16
24586;BMP280;12743;52.262;6.172;2023-09-19T00:30:33;96698.06;;;15.19
24586;BMP280;12743;52.262;6.172;2023-09-19T00:33:00;96720.09;;;15.01
24586;BMP280;12743;52.262;6.172;2023-09-19T00:35:28;96705.66;;;15.11
24586;BMP280;12743;52.262;6.172;2023-09-19T00:37:55;96736.13;;;14.98
24586;BMP280;12743;52.262;6.172;2023-09-19T00:40:22;96753.09;;;15.06
24586;BMP280;12743;52.262;6.172;2023-09-19T00:42:49;96758.94;;;15.10
24586;BMP280;12743;52.262;6.172;2023-09-19T00:45:17;96750.59;;;15.02
24586;BMP280;12743;52.262;6.172;2023-09-19T00:47:46;96758.09;;;15.04
24586;BMP280;12743;52.262;6.172;2023-09-19T00:50:17;96780.56;;;14.99
24586;BMP280;12743;52.262;6.172;2023-09-19T00:52:49;96790.38;;;14.99
24586;BMP280;12743;52.262;6.172;2023-09-19T00:55:17;96813.31;;;14.93
24586;BMP280;12743;52.262;6.172;2023-09-19T00:57:46;96796.88;;;14.98
24586;BMP280;12743;52.262;6.172;2023-09-19T01:00:14;96847.06;;;14.89
24586;BMP280;12743;52.262;6.172;2023-09-19T01:02:42;96850.06;;;14.82
24586;BMP280;12743;52.262;6.172;2023-09-19T01:05:12;96859.19;;;14.95
24586;BMP280;12743;52.262;6.172;2023-09-19T01:07:39;96885.06;;;14.91
24586;BMP280;12743;52.262;6.172;2023-09-19T01:10:11;96899.03;;;14.83
24586;BMP280;12743;52.262;6.172;2023-09-19T01:15:44;96929.75;;;14.71
24586;BMP280;12743;52.262;6.172;2023-09-19T01:20:57;96930.31;;;14.75
24586;BMP280;12743;52.262;6.172;2023-09-19T01:23:36;96938.09;;;14.70
24586;BMP280;12743;52.262;6.172;2023-09-19T01:29:23;96931.91;;;14.73
24586;BMP280;12743;52.262;6.172;2023-09-19T01:31:59;96902.50;;;14.89
24586;BMP280;12743;52.262;6.172;2023-09-19T01:34:50;96928.38;;;14.76
24586;BMP280;12743;52.262;6.172;2023-09-19T01:37:17;96928.22;;;14.79
24586;BMP280;12743;52.262;6.172;2023-09-19T01:39:48;96883.09;;;14.68
24586;BMP280;12743;52.262;6.172;2023-09-19T01:42:35;96898.47;;;14.79
24586;BMP280;12743;52.262;6.172;2023-09-19T01:45:23;96884.06;;;14.80
24586;BMP280;12743;52.262;6.172;2023-09-19T01:47:53;96859.72;;;14.85
24586;BMP280;12743;52.262;6.172;2023-09-19T01:50:30;96857.84;;;14.76
24586;BMP280;12743;52.262;6.172;2023-09-19T01:53:06;96846.38;;;14.79
24586;BMP280;12743;52.262;6.172;2023-09-19T01:55:37;96830.84;;;14.81
24586;BMP280;12743;52.262;6.172;2023-09-19T01:58:34;96827.72;;;14.92
24586;BMP280;12743;52.262;6.172;2023-09-19T02:01:03;96826.44;;;14.78
24586;BMP280;12743;52.262;6.172;2023-09-19T02:03:33;96820.28;;;14.81
24586;BMP280;12743;52.262;6.172;2023-09-19T02:06:02;96794.13;;;14.83
24586;BMP280;12743;52.262;6.172;2023-09-19T02:08:30;96779.00;;;14.84
24586;BMP280;12743;52.262;6.172;2023-09-19T02:11:00;96786.09;;;14.78
24586;BMP280;12743;52.262;6.172;2023-09-19T02:13:26;96749.72;;;14.82
24586;BMP280;12743;52.262;6.172;2023-09-19T02:15:54;96752.69;;;14.75
24586;BMP280;12743;52.262;6.172;2023-09-19T02:18:22;96747.41;;;14.75
24586;BMP280;12743;52.262;6.172;2023-09-19T02:20:49;96737.44;;;14.70
24586;BMP280;12743;52.262;6.172;2023-09-19T02:23:17;96722.16;;;14.74
24586;BMP280;12743;52.262;6.172;2023-09-19T02:25:54;96733.78;;;14.67
24586;BMP280;12743;52.262;6.172;2023-09-19T02:28:20;96713.06;;;14.75
24586;BMP280;12743;52.262;6.172;2023-09-19T02:30:50;96708.13;;;14.68
24586;BMP280;12743;52.262;6.172;2023-09-19T02:33:16;96741.13;;;14.63
24586;BMP280;12743;52.262;6.172;2023-09-19T02:35:46;96743.91;;;14.69
24586;BMP280;12743;52.262;6.172;2023-09-19T02:38:13;96773.28;;;14.62
24586;BMP280;12743;52.262;6.172;2023-09-19T02:40:41;96776.63;;;14.71
24586;BMP280;12743;52.262;6.172;2023-09-19T02:43:09;96812.94;;;14.76
24586;BMP280;12743;52.262;6.172;2023-09-19T02:45:36;96844.94;;;14.69
24586;BMP280;12743;52.262;6.172;2023-09-19T02:48:03;96901.69;;;14.74
24586;BMP280;12743;52.262;6.172;2023-09-19T02:50:30;96928.84;;;14.74
24586;BMP280;12743;52.262;6.172;2023-09-19T02:52:57;96926.06;;;14.69
24586;BMP280;12743;52.262;6.172;2023-09-19T02:55:23;96955.66;;;14.73
24586;BMP280;12743;52.262;6.172;2023-09-19T02:57:53;96999.25;;;14.68
24586;BMP280;12743;52.262;6.172;2023-09-19T03:00:24;96978.28;;;14.74
24586;BMP280;12743;52.262;6.172;2023-09-19T03:02:54;97001.03;;;14.71
24586;BMP280;12743;52.262;6.172;2023-09-19T03:05:22;97002.47;;;14.63
24586;BMP280;12743;52.262;6.172;2023-09-19T03:07:50;97001.31;;;14.64
24586;BMP280;12743;52.262;6.172;2023-09-19T03:10:20;97038.41;;;14.61
24586;BMP280;12743;52.262;6.172;2023-09-19T03:12:48;97044.28;;;14.56
24586;BMP280;12743;52.262;6.172;2023-09-19T03:15:15;97034.75;;;14.49
24586;BMP280;12743;52.262;6.172;2023-09-19T03:17:47;97055.88;;;14.67
24586;BMP280;12743;52.262;6.172;2023-09-19T03:20:18;97087.41;;;14.52
24586;BMP280;12743;52.262;6.172;2023-09-19T03:22:46;97094.59;;;14.52
24586;BMP280;12743;52.262;6.172;2023-09-19T03:25:15;97084.16;;;14.48
24586;BMP280;12743;52.262;6.172;2023-09-19T03:27:47;97125.47;;;14.42
24586;BMP280;12743;52.262;6.172;2023-09-19T03:30:14;97150.72;;;14.43
24586;BMP280;12743;52.262;6.172;2023-09-19T03:32:48;97185.03;;;14.43
24586;BMP280;12743;52.262;6.172;2023-09-19T03:35:17;97219.19;;;14.38
24586;BMP280;12743;52.262;6.172;2023-09-19T03:37:45;97218.88;;;14.36
24586;BMP280;12743;52.262;6.172;2023-09-19T03:40:13;97252.47;;;14.35
24586;BMP280;12743;52.262;6.172;2023-09-19T03:42:40;97297.44;;;14.32
24586;BMP280;12743;52.262;6.172;2023-09-19T03:45:10;97288.34;;;14.33
24586;BMP280;12743;52.262;6.172;2023-09-19T03:47:47;97264.75;;;14.29
24586;BMP280;12743;52.262;6.172;2023-09-19T03:50:16;97223.13;;;14.03
24586;BMP280;12743;52.262;6.172;2023-09-19T03:52:44;97275.16;;;14.33
24586;BMP280;12743;52.262;6.172;2023-09-19T03:55:11;97340.00;;;14.12
24586;BMP280;12743;52.262;6.172;2023-09-19T03:57:39;97294.75;;;14.23
24586;BMP280;12743;52.262;6.172;2023-09-19T04:00:08;97327.72;;;14.18
24586;BMP280;12743;52.262;6.172;2023-09-19T04:02:41;97313.63;;;14.12
24586;BMP280;12743;52.262;6.172;2023-09-19T04:05:08;97262.88;;;13.87
24586;BMP280;12743;52.262;6.172;2023-09-19T04:07:35;97299.00;;;13.99
24586;BMP280;12743;52.262;6.172;2023-09-19T04:10:02;97296.56;;;14.04
24586;BMP280;12743;52.262;6.172;2023-09-19T04:12:29;97362.13;;;13.93
24586;BMP280;12743;52.262;6.172;2023-09-19T04:14:56;97385.75;;;13.84
24586;BMP280;12743;52.262;6.172;2023-09-19T04:17:22;97403.34;;;14.00
24586;BMP280;12743;52.262;6.172;2023-09-19T04:19:50;97431.00;;;13.95
24586;BMP280;12743;52.262;6.172;2023-09-19T04:22:17;97441.22;;;13.93
24586;BMP280;12743;52.262;6.172;2023-09-19T04:24:43;97487.13;;;13.96
24586;BMP280;12743;52.262;6.172;2023-09-19T04:27:11;97510.78;;;13.99
24586;BMP280;12743;52.262;6.172;2023-09-19T04:29:41;97509.16;;;14.02
24586;BMP280;12743;52.262;6.172;2023-09-19T04:32:08;97571.66;;;13.92
24586;BMP280;12743;52.262;6.172;2023-09-19T04:34:36;97590.13;;;13.92
24586;BMP280;12743;52.262;6.172;2023-09-19T04:37:05;97615.84;;;13.88
24586;BMP280;12743;52.262;6.172;2023-09-19T04:39:32;97642.84;;;13.80
24586;BMP280;12743;52.262;6.172;2023-09-19T04:41:58;97607.06;;;13.91
24586;BMP280;12743;52.262;6.172;2023-09-19T04:44:25;97638.84;;;13.75
24586;BMP280;12743;52.262;6.172;2023-09-19T04:46:52;97705.91;;;13.74
24586;BMP280;12743;52.262;6.172;2023-09-19T04:49:19;97673.22;;;13.84
24586;BMP280;12743;52.262;6.172;2023-09-19T04:51:45;97718.56;;;13.79
24586;BMP280;12743;52.262;6.172;2023-09-19T04:54:13;97739.03;;;13.75
24586;BMP280;12743;52.262;6.172;2023-09-19T04:56:42;97677.63;;;13.75
24586;BMP280;12743;52.262;6.172;2023-09-19T04:59:08;97677.22;;;13.76
24586;BMP280;12743;52.262;6.172;2023-09-19T05:01:37;97747.25;;;13.77
24586;BMP280;12743;52.262;6.172;2023-09-19T05:04:04;97793.72;;;13.71
24586;BMP280;12743;52.262;6.172;2023-09-19T05:06:31;97758.63;;;13.74
24586;BMP280;12743;52.262;6.172;2023-09-19T05:08:59;97740.50;;;13.76
24586;BMP280;12743;52.262;6.172;2023-09-19T05:11:26;97772.34;;;13.69
24586;BMP280;12743;52.262;6.172;2023-09-19T05:13:53;97759.56;;;13.67
24586;BMP280;12743;52.262;6.172;2023-09-19T05:16:20;97775.94;;;13.75
24586;BMP280;12743;52.262;6.172;2023-09-19T05:18:47;97774.63;;;13.67
24586;BMP280;12743;52.262;6.172;2023-09-19T05:21:13;97748.03;;;13.61
24586;BMP280;12743;52.262;6.172;2023-09-19T05:23:40;97786.75;;;13.64
24586;BMP280;12743;52.262;6.172;2023-09-19T05:26:08;97791.94;;;13.68
24586;BMP280;12743;52.262;6.172;2023-09-19T05:28:34;97744.88;;;13.66
24586;BMP280;12743;52.262;6.172;2023-09-19T05:31:01;97788.56;;;13.67
24586;BMP280;12743;52.262;6.172;2023-09-19T05:33:32;97787.59;;;13.61
24586;BMP280;12743;52.262;6.172;2023-09-19T05:35:59;97784.84;;;13.65
24586;BMP280;12743;52.262;6.172;2023-09-19T05:38:26;97754.28;;;13.67
24586;BMP280;12743;52.262;6.172;2023-09-19T05:40:53;97709.88;;;13.37
24586;BMP280;12743;52.262;6.172;2023-09-19T05:43:20;97786.66;;;13.68
24586;BMP280;12743;52.262;6.172;2023-09-19T05:45:47;97735.94;;;13.77
24586;BMP280;12743;52.262;6.172;2023-09-19T05:48:15;97749.56;;;13.75
24586;BMP280;12743;52.262;6.172;2023-09-19T05:50:43;97766.63;;;13.70
24586;BMP280;12743;52.262;6.172;2023-09-19T05:53:10;97765.41;;;13.75
24586;BMP280;12743;52.262;6.172;2023-09-19T05:55:39;97706.16;;;13.92
24586;BMP280;12743;52.262;6.172;2023-09-19T05:58:06;97745.56;;;13.83
24586;BMP280;12743;52.262;6.172;2023-09-19T06:00:33;97745.09;;;13.88
24586;BMP280;12743;52.262;6.172;2023-09-19T06:03:03;97755.81;;;13.81
24586;BMP280;12743;52.262;6.172;2023-09-19T06:05:29;97707.53;;;13.97
24586;BMP280;12743;52.262;6.172;2023-09-19T06:07:59;97719.00;;;13.90
24586;BMP280;12743;52.262;6.172;2023-09-19T06:10:27;97745.72;;;13.92
24586;BMP280;12743;52.262;6.172;2023-09-19T06:12:58;97746.03;;;13.94
24586;BMP280;12743;52.262;6.172;2023-09-19T06:15:25;97763.34;;;13.95
24586;BMP280;12743;52.262;6.172;2023-09-19T06:17:53;97790.97;;;13.91
24586;BMP280;12743;52.262;6.172;2023-09-19T06:20:25;97738.63;;;13.89
24586;BMP280;12743;52.262;6.172;2023-09-19T06:22:52;97752.16;;;13.91
24586;BMP280;12743;52.262;6.172;2023-09-19T06:25:20;97741.91;;;13.93
24586;BMP280;12743;52.262;6.172;2023-09-19T06:27:48;97757.03;;;13.93
24586;BMP280;12743;52.262;6.172;2023-09-19T06:30:15;97733.50;;;13.98
24586;BMP280;12743;52.262;6.172;2023-09-19T06:32:41;97731.72;;;14.08
24586;BMP280;12743;52.262;6.172;2023-09-19T06:35:12;97741.13;;;14.09
24586;BMP280;12743;52.262;6.172;2023-09-19T06:37:40;97745.78;;;14.17
24586;BMP280;12743;52.262;6.172;2023-09-19T06:40:11;97782.41;;;14.28
24586;BMP280;12743;52.262;6.172;2023-09-19T06:42:45;97765.34;;;14.32
24586;BMP280;12743;52.262;6.172;2023-09-19T06:45:15;97763.97;;;14.40
24586;BMP280;12743;52.262;6.172;2023-09-19T06:47:46;97784.78;;;14.51
24586;BMP280;12743;52.262;6.172;2023-09-19T06:50:20;97750.56;;;14.47
24586;BMP280;12743;52.262;6.172;2023-09-19T06:52:50;97777.50;;;14.68
24586;BMP280;12743;52.262;6.172;2023-09-19T06:55:18;97772.75;;;14.75
24586;BMP280;12743;52.262;6.172;2023-09-19T06:57:47;97755.72;;;14.76
24586;BMP280;12743;52.262;6.172;2023-09-19T07:00:14;97679.03;;;14.67
24586;BMP280;12743;52.262;6.172;2023-09-19T07:03:01;97725.28;;;14.72
24586;BMP280;12743;52.262;6.172;2023-09-19T07:05:28;97725.41;;;14.81
24586;BMP280;12743;52.262;6.172;2023-09-19T07:07:55;97680.72;;;14.74
24586;BMP280;12743;52.262;6.172;2023-09-19T07:10:22;97684.75;;;14.66
24586;BMP280;12743;52.262;6.172;2023-09-19T07:13:05;97688.00;;;14.82
24586;BMP280;12743;52.262;6.172;2023-09-19T07:15:35;97668.03;;;14.81
24586;BMP280;12743;52.262;6.172;2023-09-19T07:18:06;97673.50;;;14.87
24586;BMP280;12743;52.262;6.172;2023-09-19T07:20:32;97678.09;;;14.95
24586;BMP280;12743;52.262;6.172;2023-09-19T07:23:01;97662.66;;;15.06
24586;BMP280;12743;52.262;6.172;2023-09-19T07:25:28;97645.53;;;15.11
24586;BMP280;12743;52.262;6.172;2023-09-19T07:27:55;97691.00;;;15.06
24586;BMP280;12743;52.262;6.172;2023-09-19T07:30:22;97660.19;;;15.12
24586;BMP280;12743;52.262;6.172;2023-09-19T07:32:49;97664.88;;;15.08
24586;BMP280;12743;52.262;6.172;2023-09-19T07:35:16;97646.19;;;15.02
24586;BMP280;12743;52.262;6.172;2023-09-19T07:37:43;97659.38;;;15.15
24586;BMP280;12743;52.262;6.172;2023-09-19T07:40:10;97678.19;;;15.17
24586;BMP280;12743;52.262;6.172;2023-09-19T07:42:37;97670.00;;;15.24
24586;BMP280;12743;52.262;6.172;2023-09-19T07:45:08;97681.72;;;15.23
24586;BMP280;12743;52.262;6.172;2023-09-19T07:47:34;97656.09;;;15.32
24586;BMP280;12743;52.262;6.172;2023-09-19T07:50:03;97701.91;;;15.29
24586;BMP280;12743;52.262;6.172;2023-09-19T07:52:30;97727.19;;;15.30
24586;BMP280;12743;52.262;6.172;2023-09-19T07:54:56;97686.84;;;15.39
24586;BMP280;12743;52.262;6.172;2023-09-19T07:57:24;97724.66;;;15.49
24586;BMP280;12743;52.262;6.172;2023-09-19T07:59:51;97712.69;;;15.57
24586;BMP280;12743;52.262;6.172;2023-09-19T08:02:18;97718.66;;;15.70
24586;BMP280;12743;52.262;6.172;2023-09-19T08:04:45;97776.22;;;15.66
24586;BMP280;12743;52.262;6.172;2023-09-19T08:07:15;97774.06;;;15.73
24586;BMP280;12743;52.262;6.172;2023-09-19T08:09:42;97781.69;;;15.71
24586;BMP280;12743;52.262;6.172;2023-09-19T08:12:12;97804.16;;;15.67
24586;BMP280;12743;52.262;6.172;2023-09-19T08:14:39;97764.22;;;15.74
24586;BMP280;12743;52.262;6.172;2023-09-19T08:17:08;97755.31;;;15.80
24586;BMP280;12743;52.262;6.172;2023-09-19T08:19:34;97740.94;;;16.21
24586;BMP280;12743;52.262;6.172;2023-09-19T08:22:02;97883.44;;;15.92
24586;BMP280;12743;52.262;6.172;2023-09-19T08:24:29;97823.72;;;16.12
24586;BMP280;12743;52.262;6.172;2023-09-19T08:26:57;97897.91;;;16.43
24586;BMP280;12743;52.262;6.172;2023-09-19T08:29:25;97908.28;;;16.50
24586;BMP280;12743;52.262;6.172;2023-09-19T08:31:55;98015.88;;;16.23
24586;BMP280;12743;52.262;6.172;2023-09-19T08:34:23;97951.47;;;16.47
24586;BMP280;12743;52.262;6.172;2023-09-19T08:36:54;98004.84;;;16.58
24586;BMP280;12743;52.262;6.172;2023-09-19T08:39:24;97977.97;;;16.69
24586;BMP280;12743;52.262;6.172;2023-09-19T08:41:58;97994.41;;;16.64
24586;BMP280;12743;52.262;6.172;2023-09-19T08:44:26;97992.00;;;16.78
24586;BMP280;12743;52.262;6.172;2023-09-19T08:46:55;98078.50;;;16.85
24586;BMP280;12743;52.262;6.172;2023-09-19T08:52:32;98089.41;;;16.65
24586;BMP280;12743;52.262;6.172;2023-09-19T08:55:05;98084.63;;;16.82
24586;BMP280;12743;52.262;6.172;2023-09-19T08:57:36;98061.16;;;16.71
24586;BMP280;12743;52.262;6.172;2023-09-19T09:00:08;98049.03;;;16.61
24586;BMP280;12743;52.262;6.172;2023-09-19T09:02:38;98031.34;;;16.80
24586;BMP280;12743;52.262;6.172;2023-09-19T09:05:09;98025.13;;;16.95
24586;BMP280;12743;52.262;6.172;2023-09-19T09:07:37;98068.91;;;16.87
24586;BMP280;12743;52.262;6.172;2023-09-19T09:10:04;98053.47;;;16.86
24586;BMP280;12743;52.262;6.172;2023-09-19T09:12:31;98135.81;;;16.70
24586;BMP280;12743;52.262;6.172;2023-09-19T09:14:58;98098.72;;;16.70
24586;BMP280;12743;52.262;6.172;2023-09-19T09:17:24;98129.53;;;16.98
24586;BMP280;12743;52.262;6.172;2023-09-19T09:19:54;98141.19;;;17.22
24586;BMP280;12743;52.262;6.172;2023-09-19T09:22:21;98161.84;;;17.27
24586;BMP280;12743;52.262;6.172;2023-09-19T09:24:54;98120.31;;;17.33
24586;BMP280;12743;52.262;6.172;2023-09-19T09:27:24;98202.84;;;17.26
24586;BMP280;12743;52.262;6.172;2023-09-19T09:29:52;98219.00;;;17.41
24586;BMP280;12743;52.262;6.172;2023-09-19T09:32:25;98263.78;;;17.60
24586;BMP280;12743;52.262;6.172;2023-09-19T09:34:54;98300.19;;;17.81
24586;BMP280;12743;52.262;6.172;2023-09-19T09:37:25;98384.09;;;17.45
24586;BMP280;12743;52.262;6.172;2023-09-19T09:39:56;98333.97;;;17.59
24586;BMP280;12743;52.262;6.172;2023-09-19T09:42:35;98424.31;;;17.43
24586;BMP280;12743;52.262;6.172;2023-09-19T09:45:16;98432.13;;;17.72
24586;BMP280;12743;52.262;6.172;2023-09-19T09:47:55;98487.91;;;17.59
24586;BMP280;12743;52.262;6.172;2023-09-19T09:50:33;98496.72;;;17.31
24586;BMP280;12743;52.262;6.172;2023-09-19T09:56:09;98652.25;;;17.92
24586;BMP280;12743;52.262;6.172;2023-09-19T09:58:49;98739.78;;;17.95
24586;BMP280;12743;52.262;6.172;2023-09-19T10:01:16;98610.63;;;17.88
24586;BMP280;12743;52.262;6.172;2023-09-19T10:03:44;98762.38;;;17.87
24586;BMP280;12743;52.262;6.172;2023-09-19T10:06:16;98823.41;;;18.03
24586;BMP280;12743;52.262;6.172;2023-09-19T10:09:08;98884.25;;;18.39
24586;BMP280;12743;52.262;6.172;2023-09-19T10:11:43;98908.31;;;18.48
24586;BMP280;12743;52.262;6.172;2023-09-19T10:14:20;98864.66;;;18.33
24586;BMP280;12743;52.262;6.172;2023-09-19T10:16:52;98885.63;;;18.56
24586;BMP280;12743;52.262;6.172;2023-09-19T10:19:23;98873.28;;;18.24
24586;BMP280;12743;52.262;6.172;2023-09-19T10:21:54;98883.69;;;18.19
24586;BMP280;12743;52.262;6.172;2023-09-19T10:24:22;98861.72;;;18.31
24586;BMP280;12743;52.262;6.172;2023-09-19T10:26:51;98931.06;;;18.20
24586;BMP280;12743;52.262;6.172;2023-09-19T10:29:21;98908.63;;;18.50
24586;BMP280;12743;52.262;6.172;2023-09-19T10:31:52;98904.88;;;18.35
24586;BMP280;12743;52.262;6.172;2023-09-19T10:34:20;98863.28;;;18.28
24586;BMP280;12743;52.262;6.172;2023-09-19T10:36:51;98892.47;;;18.69
24586;BMP280;12743;52.262;6.172;2023-09-19T10:39:18;98974.22;;;18.53
24586;BMP280;12743;52.262;6.172;2023-09-19T10:41:53;99007.09;;;18.59
24586;BMP280;12743;52.262;6.172;2023-09-19T10:44:24;98977.34;;;18.64
24586;BMP280;12743;52.262;6.172;2023-09-19T10:46:52;98919.38;;;18.59
24586;BMP280;12743;52.262;6.172;2023-09-19T10:49:20;99020.75;;;18.16
24586;BMP280;12743;52.262;6.172;2023-09-19T10:51:51;98956.72;;;18.27
24586;BMP280;12743;52.262;6.172;2023-09-19T10:54:20;98923.06;;;18.49
24586;BMP280;12743;52.262;6.172;2023-09-19T10:56:50;98918.06;;;18.51
24586;BMP280;12743;52.262;6.172;2023-09-19T10:59:19;98901.69;;;18.52
24586;BMP280;12743;52.262;6.172;2023-09-19T11:01:49;98890.59;;;18.29
24586;BMP280;12743;52.262;6.172;2023-09-19T11:04:32;98872.44;;;18.52
24586;BMP280;12743;52.262;6.172;2023-09-19T11:07:06;98832.38;;;18.72
24586;BMP280;12743;52.262;6.172;2023-09-19T11:09:51;98881.41;;;18.58
24586;BMP280;12743;52.262;6.172;2023-09-19T11:14:58;98891.91;;;18.49
24586;BMP280;12743;52.262;6.172;2023-09-19T11:17:38;98867.47;;;18.42
24586;BMP280;12743;52.262;6.172;2023-09-19T11:30:53;98779.09;;;18.63
24586;BMP280;12743;52.262;6.172;2023-09-19T11:33:28;98781.13;;;18.71
24586;BMP280;12743;52.262;6.172;2023-09-19T11:36:02;98838.63;;;18.65
24586;BMP280;12743;52.262;6.172;2023-09-19T11:46:54;98711.91;;;18.37
24586;BMP280;12743;52.262;6.172;2023-09-19T11:49:30;98632.09;;;18.41
24586;BMP280;12743;52.262;6.172;2023-09-19T11:51:59;98598.19;;;18.45
24586;BMP280;12743;52.262;6.172;2023-09-19T11:54:27;98562.69;;;18.60
24586;BMP280;12743;52.262;6.172;2023-09-19T11:56:59;98568.81;;;18.70
24586;BMP280;12743;52.262;6.172;2023-09-19T11:59:27;98593.97;;;18.56
24586;BMP280;12743;52.262;6.172;2023-09-19T12:02:00;98634.00;;;18.40
24586;BMP280;12743;52.262;6.172;2023-09-19T12:04:41;98595.34;;;18.61
24586;BMP280;12743;52.262;6.172;2023-09-19T12:07:11;98683.59;;;18.56
24586;BMP280;12743;52.262;6.172;2023-09-19T12:09:47;98661.25;;;18.66
24586;BMP280;12743;52.262;6.172;2023-09-19T12:12:22;98616.69;;;18.70
24586;BMP280;12743;52.262;6.172;2023-09-19T12:14:52;98737.75;;;18.96
24586;BMP280;12743;52.262;6.172;2023-09-19T12:17:19;98742.91;;;18.78
24586;BMP280;12743;52.262;6.172;2023-09-19T12:19:55;98730.34;;;18.78
24586;BMP280;12743;52.262;6.172;2023-09-19T12:22:22;98716.69;;;18.89
24586;BMP280;12743;52.262;6.172;2023-09-19T12:24:48;98771.94;;;18.85
24586;BMP280;12743;52.262;6.172;2023-09-19T12:27:17;98783.69;;;19.09
24586;BMP280;12743;52.262;6.172;2023-09-19T12:29:48;98868.84;;;18.97
24586;BMP280;12743;52.262;6.172;2023-09-19T12:32:16;98835.59;;;19.14
24586;BMP280;12743;52.262;6.172;2023-09-19T12:34:51;98843.06;;;19.06
24586;BMP280;12743;52.262;6.172;2023-09-19T12:37:20;98933.19;;;18.92
24586;BMP280;12743;52.262;6.172;2023-09-19T12:39:49;98886.19;;;18.89
24586;BMP280;12743;52.262;6.172;2023-09-19T12:42:19;98830.75;;;18.87
24586;BMP280;12743;52.262;6.172;2023-09-19T12:44:48;98880.97;;;18.85
24586;BMP280;12743;52.262;6.172;2023-09-19T12:47:17;98833.53;;;18.83
24586;BMP280;12743;52.262;6.172;2023-09-19T12:50:09;98800.22;;;18.79
24586;BMP280;12743;52.262;6.172;2023-09-19T12:52:49;98841.41;;;18.74
24586;BMP280;12743;52.262;6.172;2023-09-19T12:55:27;98846.63;;;18.78
24586;BMP280;12743;52.262;6.172;2023-09-19T13:00:44;98849.38;;;18.87
24586;BMP280;12743;52.262;6.172;2023-09-19T13:08:28;98831.22;;;18.73
24586;BMP280;12743;52.262;6.172;2023-09-19T13:11:01;98850.25;;;18.84
24586;BMP280;12743;52.262;6.172;2023-09-19T13:13:28;98873.09;;;18.81
24586;BMP280;12743;52.262;6.172;2023-09-19T13:15:55;98876.59;;;18.78
24586;BMP280;12743;52.262;6.172;2023-09-19T13:18:24;98863.94;;;18.82
24586;BMP280;12743;52.262;6.172;2023-09-19T13:21:14;98881.91;;;18.78
24586;BMP280;12743;52.262;6.172;2023-09-19T13:23:58;98830.66;;;18.65
24586;BMP280;12743;52.262;6.172;2023-09-19T13:26:40;98826.94;;;18.75
24586;BMP280;12743;52.262;6.172;2023-09-19T13:29:07;98852.50;;;18.73
24586;BMP280;12743;52.262;6.172;2023-09-19T13:31:34;98843.13;;;18.81
24586;BMP280;12743;52.262;6.172;2023-09-19T13:34:00;98853.41;;;18.79
24586;BMP280;12743;52.262;6.172;2023-09-19T13:36:27;98843.63;;;18.89
24586;BMP280;12743;52.262;6.172;2023-09-19T13:38:55;98859.75;;;19.19
24586;BMP280;12743;52.262;6.172;2023-09-19T13:41:22;98884.16;;;19.18
24586;BMP280;12743;52.262;6.172;2023-09-19T13:43:50;98878.38;;;19.19
24586;BMP280;12743;52.262;6.172;2023-09-19T13:46:17;98834.41;;;19.15
24586;BMP280;12743;52.262;6.172;2023-09-19T13:48:51;98885.94;;;19.08
24586;BMP280;12743;52.262;6.172;2023-09-19T13:51:21;98860.09;;;19.09
24586;BMP280;12743;52.262;6.172;2023-09-19T13:53:52;98890.88;;;18.97
24586;BMP280;12743;52.262;6.172;2023-09-19T13:56:18;98845.66;;;18.72
24586;BMP280;12743;52.262;6.172;2023-09-19T13:58:45;98874.91;;;18.97
24586;BMP280;12743;52.262;6.172;2023-09-19T14:01:12;98839.41;;;18.91
24586;BMP280;12743;52.262;6.172;2023-09-19T14:03:40;98869.69;;;18.94
24586;BMP280;12743;52.262;6.172;2023-09-19T14:06:07;98835.31;;;18.99
24586;BMP280;12743;52.262;6.172;2023-09-19T14:08:34;98873.59;;;19.14
24586;BMP280;12743;52.262;6.172;2023-09-19T14:11:06;98848.97;;;19.35
24586;BMP280;12743;52.262;6.172;2023-09-19T14:13:33;98848.13;;;19.26
24586;BMP280;12743;52.262;6.172;2023-09-19T14:16:04;98834.72;;;19.29
24586;BMP280;12743;52.262;6.172;2023-09-19T14:18:32;98870.34;;;19.32
24586;BMP280;12743;52.262;6.172;2023-09-19T14:21:03;98828.25;;;19.52
24586;BMP280;12743;52.262;6.172;2023-09-19T14:23:35;98870.22;;;19.48
24586;BMP280;12743;52.262;6.172;2023-09-19T14:26:02;98894.59;;;19.46
24586;BMP280;12743;52.262;6.172;2023-09-19T14:28:29;98836.28;;;19.39
24586;BMP280;12743;52.262;6.172;2023-09-19T14:30:56;98833.88;;;19.54
24586;BMP280;12743;52.262;6.172;2023-09-19T14:33:23;98871.19;;;19.41
24586;BMP280;12743;52.262;6.172;2023-09-19T14:35:49;98854.75;;;19.55
24586;BMP280;12743;52.262;6.172;2023-09-19T14:38:16;98833.88;;;19.54
24586;BMP280;12743;52.262;6.172;2023-09-19T14:40:43;98879.56;;;19.52
24586;BMP280;12743;52.262;6.172;2023-09-19T14:43:10;98849.53;;;19.30
24586;BMP280;12743;52.262;6.172;2023-09-19T14:45:36;98831.06;;;19.36
24586;BMP280;12743;52.262;6.172;2023-09-19T14:48:04;98832.81;;;19.51
24586;BMP280;12743;52.262;6.172;2023-09-19T14:50:31;98843.31;;;19.33
24586;BMP280;12743;52.262;6.172;2023-09-19T14:52:59;98844.41;;;19.57
24586;BMP280;12743;52.262;6.172;2023-09-19T14:55:28;98847.91;;;19.54
24586;BMP280;12743;52.262;6.172;2023-09-19T14:57:55;98895.06;;;19.32
24586;BMP280;12743;52.262;6.172;2023-09-19T15:00:25;98889.53;;;19.39
24586;BMP280;12743;52.262;6.172;2023-09-19T15:02:51;98833.78;;;19.45
24586;BMP280;12743;52.262;6.172;2023-09-19T15:05:19;98810.91;;;19.47
24586;BMP280;12743;52.262;6.172;2023-09-19T15:07:46;98871.56;;;19.31